sensor_id;sensor_type;location;lat;lon;timestamp;P1;durP1;ratioP1;P2;durP2;ratioP2
4375;SDS011;2202;50.866;12.750;2023-04-05T00:02:00;11.17;;;9.50;;
4375;SDS011;2202;50.866;12.750;2023-04-05T00:04:27;7.90;;;7.07;;
4375;SDS011;2202;50.866;12.750;2023-04-05T00:06:54;8.20;;;7.50;;
4375;SDS011;2202;50.866;12.750;2023-04-05T00:09:21;8.73;;;7.80;;
4375;SDS011;2202;50.866;12.750;2023-04-05T00:11:49;11.00;;;8.30;;
4375;SDS011;2202;50.866;12.750;2023-04-05T00:14:16;8.60;;;7.83;;
4375;SDS011;2202;50.866;12.750;2023-04-05T00:16:43;10.60;;;8.07;;
4375;SDS011;2202;50.866;12.750;2023-04-05T00:19:10;8.90;;;8.00;;
4375;SDS011;2202;50.866;12.750;2023-04-05T00:21:37;8.13;;;7.33;;
4375;SDS011;2202;50.866;12.750;2023-04-05T00:24:05;10.00;;;7.10;;
4375;SDS011;2202;50.866;12.750;2023-04-05T00:26:39;8.27;;;7.47;;
4375;SDS011;2202;50.866;12.750;2023-04-05T00:29:09;8.60;;;7.50;;
4375;SDS011;2202;50.866;12.750;2023-04-05T00:31:36;7.80;;;7.07;;
4375;SDS011;2202;50.866;12.750;2023-04-05T00:34:03;9.07;;;7.50;;
4375;SDS011;2202;50.866;12.750;2023-04-05T00:36:33;8.03;;;7.23;;
4375;SDS011;2202;50.866;12.750;2023-04-05T00:39:00;8.50;;;7.70;;
4375;SDS011;2202;50.866;12.750;2023-04-05T00:41:27;7.87;;;7.17;;
4375;SDS011;2202;50.866;12.750;2023-04-05T00:43:53;12.07;;;7.70;;
4375;SDS011;2202;50.866;12.750;2023-04-05T00:46:22;8.93;;;8.03;;
4375;SDS011;2202;50.866;12.750;2023-04-05T00:48:49;7.87;;;7.07;;
4375;SDS011;2202;50.866;12.750;2023-04-05T00:51:16;8.43;;;7.53;;
4375;SDS011;2202;50.866;12.750;2023-04-05T00:53:44;9.53;;;8.53;;
4375;SDS011;2202;50.866;12.750;2023-04-05T00:56:12;7.90;;;7.10;;
4375;SDS011;2202;50.866;12.750;2023-04-05T00:58:41;9.93;;;7.70;;
4375;SDS011;2202;50.866;12.750;2023-04-05T01:01:09;8.27;;;7.47;;
4375;SDS011;2202;50.866;12.750;2023-04-05T01:03:44;9.10;;;7.50;;
4375;SDS011;2202;50.866;12.750;2023-04-05T01:06:20;7.23;;;6.70;;
4375;SDS011;2202;50.866;12.750;2023-04-05T01:08:55;9.17;;;7.57;;
4375;SDS011;2202;50.866;12.750;2023-04-05T01:11:28;7.80;;;7.00;;
4375;SDS011;2202;50.866;12.750;2023-04-05T01:13:57;7.70;;;7.00;;
4375;SDS011;2202;50.866;12.750;2023-04-05T01:16:24;7.23;;;6.63;;
4375;SDS011;2202;50.866;12.750;2023-04-05T01:18:53;9.67;;;7.73;;
4375;SDS011;2202;50.866;12.750;2023-04-05T01:21:31;7.23;;;6.50;;
4375;SDS011;2202;50.866;12.750;2023-04-05T01:24:39;8.93;;;7.87;;
4375;SDS011;2202;50.866;12.750;2023-04-05T01:27:15;10.83;;;8.03;;
4375;SDS011;2202;50.866;12.750;2023-04-05T01:29:49;9.13;;;8.20;;
4375;SDS011;2202;50.866;12.750;2023-04-05T01:32:21;10.30;;;8.37;;
4375;SDS011;2202;50.866;12.750;2023-04-05T01:34:57;9.17;;;8.37;;
4375;SDS011;2202;50.866;12.750;2023-04-05T01:37:34;10.43;;;8.00;;
4375;SDS011;2202;50.866;12.750;2023-04-05T01:40:03;8.40;;;7.57;;
4375;SDS011;2202;50.866;12.750;2023-04-05T01:42:31;8.23;;;7.53;;
4375;SDS011;2202;50.866;12.750;2023-04-05T01:44:59;10.43;;;9.07;;
4375;SDS011;2202;50.866;12.750;2023-04-05T01:47:26;8.23;;;7.20;;
4375;SDS011;2202;50.866;12.750;2023-04-05T01:49:53;7.20;;;6.50;;
4375;SDS011;2202;50.866;12.750;2023-04-05T01:52:20;7.70;;;6.97;;
4375;SDS011;2202;50.866;12.750;2023-04-05T01:54:47;7.80;;;7.03;;
4375;SDS011;2202;50.866;12.750;2023-04-05T01:57:13;8.27;;;7.47;;
4375;SDS011;2202;50.866;12.750;2023-04-05T01:59:40;8.57;;;7.67;;
4375;SDS011;2202;50.866;12.750;2023-04-05T02:02:09;7.83;;;7.10;;
4375;SDS011;2202;50.866;12.750;2023-04-05T02:04:36;9.83;;;8.23;;
4375;SDS011;2202;50.866;12.750;2023-04-05T02:07:02;12.00;;;7.30;;
4375;SDS011;2202;50.866;12.750;2023-04-05T02:09:29;9.87;;;7.70;;
4375;SDS011;2202;50.866;12.750;2023-04-05T02:11:56;7.50;;;6.80;;
4375;SDS011;2202;50.866;12.750;2023-04-05T02:14:23;8.27;;;7.50;;
4375;SDS011;2202;50.866;12.750;2023-04-05T02:16:50;7.97;;;6.67;;
4375;SDS011;2202;50.866;12.750;2023-04-05T02:19:21;9.17;;;8.20;;
4375;SDS011;2202;50.866;12.750;2023-04-05T02:21:50;9.50;;;8.60;;
4375;SDS011;2202;50.866;12.750;2023-04-05T02:24:18;13.60;;;8.00;;
4375;SDS011;2202;50.866;12.750;2023-04-05T02:26:45;8.73;;;7.70;;
4375;SDS011;2202;50.866;12.750;2023-04-05T02:29:12;9.10;;;8.27;;
4375;SDS011;2202;50.866;12.750;2023-04-05T02:31:39;9.70;;;8.70;;
4375;SDS011;2202;50.866;12.750;2023-04-05T02:34:06;11.77;;;8.83;;
4375;SDS011;2202;50.866;12.750;2023-04-05T02:36:37;9.30;;;8.30;;
4375;SDS011;2202;50.866;12.750;2023-04-05T02:39:05;11.23;;;9.67;;
4375;SDS011;2202;50.866;12.750;2023-04-05T02:41:32;10.23;;;8.97;;
4375;SDS011;2202;50.866;12.750;2023-04-05T02:43:59;9.50;;;8.60;;
4375;SDS011;2202;50.866;12.750;2023-04-05T02:46:26;9.67;;;8.67;;
4375;SDS011;2202;50.866;12.750;2023-04-05T02:48:53;10.87;;;9.20;;
4375;SDS011;2202;50.866;12.750;2023-04-05T02:51:20;9.70;;;8.67;;
4375;SDS011;2202;50.866;12.750;2023-04-05T02:53:48;10.43;;;9.43;;
4375;SDS011;2202;50.866;12.750;2023-04-05T02:56:15;9.83;;;8.90;;
4375;SDS011;2202;50.866;12.750;2023-04-05T02:58:42;10.30;;;9.27;;
4375;SDS011;2202;50.866;12.750;2023-04-05T03:01:08;9.73;;;8.47;;
4375;SDS011;2202;50.866;12.750;2023-04-05T03:03:36;8.90;;;8.00;;
4375;SDS011;2202;50.866;12.750;2023-04-05T03:06:04;9.83;;;8.80;;
4375;SDS011;2202;50.866;12.750;2023-04-05T03:08:34;9.50;;;8.63;;
4375;SDS011;2202;50.866;12.750;2023-04-05T03:11:03;8.70;;;7.90;;
4375;SDS011;2202;50.866;12.750;2023-04-05T03:13:31;11.00;;;9.10;;
4375;SDS011;2202;50.866;12.750;2023-04-05T03:15:58;8.67;;;7.87;;
4375;SDS011;2202;50.866;12.750;2023-04-05T03:18:24;9.53;;;8.23;;
4375;SDS011;2202;50.866;12.750;2023-04-05T03:20:53;8.50;;;7.60;;
4375;SDS011;2202;50.866;12.750;2023-04-05T03:23:21;8.03;;;7.33;;
4375;SDS011;2202;50.866;12.750;2023-04-05T03:25:54;8.63;;;7.83;;
4375;SDS011;2202;50.866;12.750;2023-04-05T03:28:24;8.60;;;7.80;;
4375;SDS011;2202;50.866;12.750;2023-04-05T03:30:51;8.90;;;8.00;;
4375;SDS011;2202;50.866;12.750;2023-04-05T03:33:19;8.80;;;7.90;;
4375;SDS011;2202;50.866;12.750;2023-04-05T03:35:45;9.20;;;8.20;;
4375;SDS011;2202;50.866;12.750;2023-04-05T03:38:12;9.07;;;7.50;;
4375;SDS011;2202;50.866;12.750;2023-04-05T03:40:39;8.73;;;7.87;;
4375;SDS011;2202;50.866;12.750;2023-04-05T03:43:06;8.70;;;7.80;;
4375;SDS011;2202;50.866;12.750;2023-04-05T03:45:35;9.93;;;8.50;;
4375;SDS011;2202;50.866;12.750;2023-04-05T03:48:02;12.10;;;8.13;;
4375;SDS011;2202;50.866;12.750;2023-04-05T03:50:29;7.97;;;7.17;;
4375;SDS011;2202;50.866;12.750;2023-04-05T03:52:56;7.67;;;6.97;;
4375;SDS011;2202;50.866;12.750;2023-04-05T03:55:23;8.27;;;7.53;;
4375;SDS011;2202;50.866;12.750;2023-04-05T03:57:51;8.50;;;7.07;;
4375;SDS011;2202;50.866;12.750;2023-04-05T04:00:17;7.80;;;7.10;;
4375;SDS011;2202;50.866;12.750;2023-04-05T04:02:46;7.63;;;6.90;;
4375;SDS011;2202;50.866;12.750;2023-04-05T04:05:14;8.60;;;7.70;;
4375;SDS011;2202;50.866;12.750;2023-04-05T04:07:41;8.00;;;7.23;;
4375;SDS011;2202;50.866;12.750;2023-04-05T04:10:14;8.60;;;7.70;;
4375;SDS011;2202;50.866;12.750;2023-04-05T04:12:42;8.00;;;7.17;;
4375;SDS011;2202;50.866;12.750;2023-04-05T04:15:10;8.20;;;7.27;;
4375;SDS011;2202;50.866;12.750;2023-04-05T04:17:37;12.10;;;7.50;;
4375;SDS011;2202;50.866;12.750;2023-04-05T04:20:06;8.47;;;7.57;;
4375;SDS011;2202;50.866;12.750;2023-04-05T04:22:35;7.90;;;7.10;;
4375;SDS011;2202;50.866;12.750;2023-04-05T04:25:05;10.27;;;7.77;;
4375;SDS011;2202;50.866;12.750;2023-04-05T04:27:33;11.03;;;8.20;;
4375;SDS011;2202;50.866;12.750;2023-04-05T04:30:01;11.00;;;10.03;;
4375;SDS011;2202;50.866;12.750;2023-04-05T04:32:29;8.90;;;8.00;;
4375;SDS011;2202;50.866;12.750;2023-04-05T04:35:12;10.60;;;8.50;;
4375;SDS011;2202;50.866;12.750;2023-04-05T04:37:42;9.10;;;7.83;;
4375;SDS011;2202;50.866;12.750;2023-04-05T04:40:11;9.00;;;8.10;;
4375;SDS011;2202;50.866;12.750;2023-04-05T04:42:41;12.50;;;7.67;;
4375;SDS011;2202;50.866;12.750;2023-04-05T04:45:10;9.70;;;8.27;;
4375;SDS011;2202;50.866;12.750;2023-04-05T04:47:40;11.97;;;9.67;;
4375;SDS011;2202;50.866;12.750;2023-04-05T04:50:08;12.00;;;9.70;;
4375;SDS011;2202;50.866;12.750;2023-04-05T04:52:37;14.30;;;10.50;;
4375;SDS011;2202;50.866;12.750;2023-04-05T04:55:05;10.13;;;9.13;;
4375;SDS011;2202;50.866;12.750;2023-04-05T04:57:33;11.97;;;9.77;;
4375;SDS011;2202;50.866;12.750;2023-04-05T05:00:00;11.80;;;10.60;;
4375;SDS011;2202;50.866;12.750;2023-04-05T05:02:31;10.30;;;9.30;;
4375;SDS011;2202;50.866;12.750;2023-04-05T05:04:58;12.50;;;9.77;;
4375;SDS011;2202;50.866;12.750;2023-04-05T05:07:25;11.37;;;9.27;;
4375;SDS011;2202;50.866;12.750;2023-04-05T05:09:53;10.40;;;9.30;;
4375;SDS011;2202;50.866;12.750;2023-04-05T05:12:21;10.47;;;8.70;;
4375;SDS011;2202;50.866;12.750;2023-04-05T05:14:47;11.93;;;9.10;;
4375;SDS011;2202;50.866;12.750;2023-04-05T05:17:14;10.80;;;8.50;;
4375;SDS011;2202;50.866;12.750;2023-04-05T05:19:41;10.07;;;9.07;;
4375;SDS011;2202;50.866;12.750;2023-04-05T05:22:08;10.83;;;8.60;;
4375;SDS011;2202;50.866;12.750;2023-04-05T05:24:35;10.13;;;9.17;;
4375;SDS011;2202;50.866;12.750;2023-04-05T05:27:03;10.97;;;9.97;;
4375;SDS011;2202;50.866;12.750;2023-04-05T05:29:30;10.60;;;9.40;;
4375;SDS011;2202;50.866;12.750;2023-04-05T05:31:57;11.20;;;10.07;;
4375;SDS011;2202;50.866;12.750;2023-04-05T05:34:24;12.00;;;9.83;;
4375;SDS011;2202;50.866;12.750;2023-04-05T05:36:52;11.57;;;9.53;;
4375;SDS011;2202;50.866;12.750;2023-04-05T05:39:19;10.47;;;8.90;;
4375;SDS011;2202;50.866;12.750;2023-04-05T05:41:47;11.33;;;10.23;;
4375;SDS011;2202;50.866;12.750;2023-04-05T05:44:15;10.30;;;9.37;;
4375;SDS011;2202;50.866;12.750;2023-04-05T05:46:42;10.87;;;9.67;;
4375;SDS011;2202;50.866;12.750;2023-04-05T05:49:09;11.90;;;9.57;;
4375;SDS011;2202;50.866;12.750;2023-04-05T05:51:36;13.40;;;10.00;;
4375;SDS011;2202;50.866;12.750;2023-04-05T05:54:03;11.70;;;9.67;;
4375;SDS011;2202;50.866;12.750;2023-04-05T05:56:30;9.23;;;8.43;;
4375;SDS011;2202;50.866;12.750;2023-04-05T05:58:57;13.83;;;10.30;;
4375;SDS011;2202;50.866;12.750;2023-04-05T06:01:25;8.90;;;8.00;;
4375;SDS011;2202;50.866;12.750;2023-04-05T06:03:53;10.00;;;8.60;;
4375;SDS011;2202;50.866;12.750;2023-04-05T06:06:21;11.60;;;9.13;;
4375;SDS011;2202;50.866;12.750;2023-04-05T06:08:48;10.93;;;9.37;;
4375;SDS011;2202;50.866;12.750;2023-04-05T06:11:15;10.37;;;8.20;;
4375;SDS011;2202;50.866;12.750;2023-04-05T06:13:43;12.90;;;9.53;;
4375;SDS011;2202;50.866;12.750;2023-04-05T06:16:10;16.63;;;9.57;;
4375;SDS011;2202;50.866;12.750;2023-04-05T06:18:38;15.20;;;13.40;;
4375;SDS011;2202;50.866;12.750;2023-04-05T06:21:05;10.43;;;9.20;;
4375;SDS011;2202;50.866;12.750;2023-04-05T06:23:31;12.60;;;8.93;;
4375;SDS011;2202;50.866;12.750;2023-04-05T06:25:58;9.50;;;8.67;;
4375;SDS011;2202;50.866;12.750;2023-04-05T06:28:25;13.37;;;9.20;;
4375;SDS011;2202;50.866;12.750;2023-04-05T06:30:53;11.30;;;8.97;;
4375;SDS011;2202;50.866;12.750;2023-04-05T06:33:21;10.40;;;8.37;;
4375;SDS011;2202;50.866;12.750;2023-04-05T06:35:49;12.90;;;8.80;;
4375;SDS011;2202;50.866;12.750;2023-04-05T06:38:16;9.67;;;8.60;;
4375;SDS011;2202;50.866;12.750;2023-04-05T06:40:43;9.43;;;8.20;;
4375;SDS011;2202;50.866;12.750;2023-04-05T06:43:09;9.90;;;8.70;;
4375;SDS011;2202;50.866;12.750;2023-04-05T06:45:36;15.07;;;9.37;;
4375;SDS011;2202;50.866;12.750;2023-04-05T06:48:03;10.07;;;9.00;;
4375;SDS011;2202;50.866;12.750;2023-04-05T06:50:30;9.60;;;8.00;;
4375;SDS011;2202;50.866;12.750;2023-04-05T06:52:59;11.03;;;9.93;;
4375;SDS011;2202;50.866;12.750;2023-04-05T06:55:26;12.73;;;7.43;;
4375;SDS011;2202;50.866;12.750;2023-04-05T06:57:53;9.17;;;7.90;;
4375;SDS011;2202;50.866;12.750;2023-04-05T07:00:20;8.40;;;7.60;;
4375;SDS011;2202;50.866;12.750;2023-04-05T07:02:47;9.70;;;8.30;;
4375;SDS011;2202;50.866;12.750;2023-04-05T07:05:14;8.13;;;7.33;;
4375;SDS011;2202;50.866;12.750;2023-04-05T07:07:42;8.87;;;8.17;;
4375;SDS011;2202;50.866;12.750;2023-04-05T07:10:11;9.97;;;8.97;;
4375;SDS011;2202;50.866;12.750;2023-04-05T07:12:38;9.10;;;8.03;;
4375;SDS011;2202;50.866;12.750;2023-04-05T07:15:05;9.63;;;7.93;;
4375;SDS011;2202;50.866;12.750;2023-04-05T07:17:33;10.37;;;8.00;;
4375;SDS011;2202;50.866;12.750;2023-04-05T07:20:00;9.03;;;8.17;;
4375;SDS011;2202;50.866;12.750;2023-04-05T07:22:32;9.17;;;8.30;;
4375;SDS011;2202;50.866;12.750;2023-04-05T07:24:59;9.80;;;8.07;;
4375;SDS011;2202;50.866;12.750;2023-04-05T07:27:28;9.03;;;8.23;;
4375;SDS011;2202;50.866;12.750;2023-04-05T07:29:55;8.80;;;7.33;;
4375;SDS011;2202;50.866;12.750;2023-04-05T07:32:22;9.70;;;7.90;;
4375;SDS011;2202;50.866;12.750;2023-04-05T07:34:49;8.03;;;7.23;;
4375;SDS011;2202;50.866;12.750;2023-04-05T07:37:16;10.07;;;8.73;;
4375;SDS011;2202;50.866;12.750;2023-04-05T07:39:42;10.63;;;8.60;;
4375;SDS011;2202;50.866;12.750;2023-04-05T07:42:09;9.47;;;8.47;;
4375;SDS011;2202;50.866;12.750;2023-04-05T07:44:38;12.13;;;10.00;;
4375;SDS011;2202;50.866;12.750;2023-04-05T07:47:04;13.30;;;11.60;;
4375;SDS011;2202;50.866;12.750;2023-04-05T07:49:31;13.10;;;10.13;;
4375;SDS011;2202;50.866;12.750;2023-04-05T07:51:58;12.13;;;9.73;;
4375;SDS011;2202;50.866;12.750;2023-04-05T07:54:25;13.10;;;10.57;;
4375;SDS011;2202;50.866;12.750;2023-04-05T07:56:52;11.10;;;8.80;;
4375;SDS011;2202;50.866;12.750;2023-04-05T07:59:22;13.77;;;9.37;;
4375;SDS011;2202;50.866;12.750;2023-04-05T08:01:50;11.50;;;8.90;;
4375;SDS011;2202;50.866;12.750;2023-04-05T08:04:17;10.53;;;6.00;;
4375;SDS011;2202;50.866;12.750;2023-04-05T08:06:45;6.40;;;5.80;;
4375;SDS011;2202;50.866;12.750;2023-04-05T08:09:12;7.87;;;6.53;;
4375;SDS011;2202;50.866;12.750;2023-04-05T08:11:39;6.67;;;6.10;;
4375;SDS011;2202;50.866;12.750;2023-04-05T08:14:06;7.93;;;6.83;;
4375;SDS011;2202;50.866;12.750;2023-04-05T08:16:33;9.77;;;7.20;;
4375;SDS011;2202;50.866;12.750;2023-04-05T08:19:01;9.53;;;7.17;;
4375;SDS011;2202;50.866;12.750;2023-04-05T08:21:28;13.40;;;7.70;;
4375;SDS011;2202;50.866;12.750;2023-04-05T08:23:55;9.17;;;6.87;;
4375;SDS011;2202;50.866;12.750;2023-04-05T08:26:24;8.83;;;6.77;;
4375;SDS011;2202;50.866;12.750;2023-04-05T08:28:50;7.27;;;6.60;;
4375;SDS011;2202;50.866;12.750;2023-04-05T08:31:17;10.60;;;6.70;;
4375;SDS011;2202;50.866;12.750;2023-04-05T08:33:44;6.60;;;6.00;;
4375;SDS011;2202;50.866;12.750;2023-04-05T08:36:13;8.00;;;6.10;;
4375;SDS011;2202;50.866;12.750;2023-04-05T08:38:39;12.33;;;6.40;;
4375;SDS011;2202;50.866;12.750;2023-04-05T08:41:07;12.87;;;7.00;;
4375;SDS011;2202;50.866;12.750;2023-04-05T08:43:41;9.43;;;6.67;;
4375;SDS011;2202;50.866;12.750;2023-04-05T08:46:13;8.77;;;7.47;;
4375;SDS011;2202;50.866;12.750;2023-04-05T08:48:42;7.43;;;6.70;;
4375;SDS011;2202;50.866;12.750;2023-04-05T08:51:09;8.03;;;6.73;;
4375;SDS011;2202;50.866;12.750;2023-04-05T08:53:38;7.27;;;6.37;;
4375;SDS011;2202;50.866;12.750;2023-04-05T08:56:05;7.27;;;6.57;;
4375;SDS011;2202;50.866;12.750;2023-04-05T08:58:33;5.80;;;5.17;;
4375;SDS011;2202;50.866;12.750;2023-04-05T09:01:02;5.03;;;4.50;;
4375;SDS011;2202;50.866;12.750;2023-04-05T09:03:34;5.90;;;5.40;;
4375;SDS011;2202;50.866;12.750;2023-04-05T09:06:03;6.97;;;6.30;;
4375;SDS011;2202;50.866;12.750;2023-04-05T09:08:32;6.63;;;6.03;;
4375;SDS011;2202;50.866;12.750;2023-04-05T09:11:01;6.90;;;6.20;;
4375;SDS011;2202;50.866;12.750;2023-04-05T09:13:27;6.67;;;6.07;;
4375;SDS011;2202;50.866;12.750;2023-04-05T09:15:54;6.07;;;5.37;;
4375;SDS011;2202;50.866;12.750;2023-04-05T09:18:22;5.80;;;5.20;;
4375;SDS011;2202;50.866;12.750;2023-04-05T09:20:48;6.47;;;5.60;;
4375;SDS011;2202;50.866;12.750;2023-04-05T09:23:15;6.10;;;5.50;;
4375;SDS011;2202;50.866;12.750;2023-04-05T09:25:42;7.07;;;6.20;;
4375;SDS011;2202;50.866;12.750;2023-04-05T09:28:12;9.57;;;6.70;;
4375;SDS011;2202;50.866;12.750;2023-04-05T09:30:40;7.50;;;6.67;;
4375;SDS011;2202;50.866;12.750;2023-04-05T09:33:12;7.37;;;6.70;;
4375;SDS011;2202;50.866;12.750;2023-04-05T09:35:43;6.90;;;5.50;;
4375;SDS011;2202;50.866;12.750;2023-04-05T09:38:14;5.80;;;5.30;;
4375;SDS011;2202;50.866;12.750;2023-04-05T09:40:42;6.63;;;5.53;;
4375;SDS011;2202;50.866;12.750;2023-04-05T09:43:11;6.53;;;5.90;;
4375;SDS011;2202;50.866;12.750;2023-04-05T09:45:40;7.53;;;4.63;;
4375;SDS011;2202;50.866;12.750;2023-04-05T09:48:10;6.87;;;5.50;;
4375;SDS011;2202;50.866;12.750;2023-04-05T09:50:37;7.00;;;6.27;;
4375;SDS011;2202;50.866;12.750;2023-04-05T09:53:05;6.57;;;5.77;;
4375;SDS011;2202;50.866;12.750;2023-04-05T09:55:34;7.03;;;5.53;;
4375;SDS011;2202;50.866;12.750;2023-04-05T09:58:01;7.20;;;6.50;;
4375;SDS011;2202;50.866;12.750;2023-04-05T10:00:29;8.40;;;6.10;;
4375;SDS011;2202;50.866;12.750;2023-04-05T10:02:57;6.10;;;5.40;;
4375;SDS011;2202;50.866;12.750;2023-04-05T10:05:24;6.00;;;5.40;;
4375;SDS011;2202;50.866;12.750;2023-04-05T10:07:53;6.83;;;6.10;;
4375;SDS011;2202;50.866;12.750;2023-04-05T10:10:21;9.33;;;6.93;;
4375;SDS011;2202;50.866;12.750;2023-04-05T10:12:48;5.50;;;5.00;;
4375;SDS011;2202;50.866;12.750;2023-04-05T10:15:16;6.53;;;5.93;;
4375;SDS011;2202;50.866;12.750;2023-04-05T10:17:48;7.57;;;5.90;;
4375;SDS011;2202;50.866;12.750;2023-04-05T10:20:20;4.90;;;4.57;;
4375;SDS011;2202;50.866;12.750;2023-04-05T10:22:56;6.33;;;5.73;;
4375;SDS011;2202;50.866;12.750;2023-04-05T10:25:26;5.53;;;5.03;;
4375;SDS011;2202;50.866;12.750;2023-04-05T10:28:06;11.43;;;6.63;;
4375;SDS011;2202;50.866;12.750;2023-04-05T10:30:38;7.17;;;5.77;;
4375;SDS011;2202;50.866;12.750;2023-04-05T10:33:12;6.27;;;5.77;;
4375;SDS011;2202;50.866;12.750;2023-04-05T10:35:48;6.80;;;6.20;;
4375;SDS011;2202;50.866;12.750;2023-04-05T10:38:22;6.97;;;6.30;;
4375;SDS011;2202;50.866;12.750;2023-04-05T10:40:52;6.83;;;5.90;;
4375;SDS011;2202;50.866;12.750;2023-04-05T10:43:22;5.70;;;5.30;;
4375;SDS011;2202;50.866;12.750;2023-04-05T10:45:51;8.03;;;6.70;;
4375;SDS011;2202;50.866;12.750;2023-04-05T10:48:27;6.43;;;5.83;;
4375;SDS011;2202;50.866;12.750;2023-04-05T10:51:00;7.10;;;6.40;;
4375;SDS011;2202;50.866;12.750;2023-04-05T10:53:28;9.33;;;5.80;;
4375;SDS011;2202;50.866;12.750;2023-04-05T10:55:56;6.83;;;6.13;;
4375;SDS011;2202;50.866;12.750;2023-04-05T10:58:24;6.57;;;5.73;;
4375;SDS011;2202;50.866;12.750;2023-04-05T11:00:52;7.67;;;7.00;;
4375;SDS011;2202;50.866;12.750;2023-04-05T11:06:17;7.03;;;6.27;;
4375;SDS011;2202;50.866;12.750;2023-04-05T11:08:48;7.83;;;7.00;;
4375;SDS011;2202;50.866;12.750;2023-04-05T11:11:18;7.47;;;6.53;;
4375;SDS011;2202;50.866;12.750;2023-04-05T11:13:48;7.23;;;6.60;;
4375;SDS011;2202;50.866;12.750;2023-04-05T11:16:17;7.70;;;6.27;;
4375;SDS011;2202;50.866;12.750;2023-04-05T11:18:46;6.27;;;5.67;;
4375;SDS011;2202;50.866;12.750;2023-04-05T11:21:18;6.70;;;6.10;;
4375;SDS011;2202;50.866;12.750;2023-04-05T11:24:00;7.13;;;6.33;;
4375;SDS011;2202;50.866;12.750;2023-04-05T11:26:30;6.30;;;5.70;;
4375;SDS011;2202;50.866;12.750;2023-04-05T11:28:58;6.17;;;5.63;;
4375;SDS011;2202;50.866;12.750;2023-04-05T11:31:25;6.70;;;5.93;;
4375;SDS011;2202;50.866;12.750;2023-04-05T11:33:54;6.80;;;6.20;;
4375;SDS011;2202;50.866;12.750;2023-04-05T11:36:30;7.57;;;6.70;;
4375;SDS011;2202;50.866;12.750;2023-04-05T11:41:54;16.13;;;13.73;;
4375;SDS011;2202;50.866;12.750;2023-04-05T11:44:26;18.87;;;15.10;;
4375;SDS011;2202;50.866;12.750;2023-04-05T11:46:53;7.50;;;6.80;;
4375;SDS011;2202;50.866;12.750;2023-04-05T11:49:23;11.40;;;8.80;;
4375;SDS011;2202;50.866;12.750;2023-04-05T11:51:51;10.30;;;8.17;;
4375;SDS011;2202;50.866;12.750;2023-04-05T11:54:28;8.13;;;6.23;;
4375;SDS011;2202;50.866;12.750;2023-04-05T11:56:56;7.13;;;6.57;;
4375;SDS011;2202;50.866;12.750;2023-04-05T11:59:29;6.53;;;5.87;;
4375;SDS011;2202;50.866;12.750;2023-04-05T12:01:58;6.60;;;6.00;;
4375;SDS011;2202;50.866;12.750;2023-04-05T12:04:27;7.50;;;6.70;;
4375;SDS011;2202;50.866;12.750;2023-04-05T12:07:09;6.60;;;6.00;;
4375;SDS011;2202;50.866;12.750;2023-04-05T12:12:22;7.90;;;7.20;;
4375;SDS011;2202;50.866;12.750;2023-04-05T12:14:49;6.77;;;6.27;;
4375;SDS011;2202;50.866;12.750;2023-04-05T12:17:16;8.40;;;6.90;;
4375;SDS011;2202;50.866;12.750;2023-04-05T12:19:44;11.00;;;7.37;;
4375;SDS011;2202;50.866;12.750;2023-04-05T12:22:11;7.07;;;6.47;;
4375;SDS011;2202;50.866;12.750;2023-04-05T12:24:38;9.00;;;6.63;;
4375;SDS011;2202;50.866;12.750;2023-04-05T12:27:05;6.87;;;6.33;;
4375;SDS011;2202;50.866;12.750;2023-04-05T12:29:32;7.80;;;6.57;;
4375;SDS011;2202;50.866;12.750;2023-04-05T12:31:59;6.57;;;5.90;;
4375;SDS011;2202;50.866;12.750;2023-04-05T12:34:28;7.83;;;7.13;;
4375;SDS011;2202;50.866;12.750;2023-04-05T12:36:56;10.73;;;8.03;;
4375;SDS011;2202;50.866;12.750;2023-04-05T12:39:27;8.83;;;6.67;;
4375;SDS011;2202;50.866;12.750;2023-04-05T12:41:55;7.23;;;6.63;;
4375;SDS011;2202;50.866;12.750;2023-04-05T12:44:27;8.20;;;7.33;;
4375;SDS011;2202;50.866;12.750;2023-04-05T12:46:58;7.20;;;6.50;;
4375;SDS011;2202;50.866;12.750;2023-04-05T12:49:26;7.60;;;6.57;;
4375;SDS011;2202;50.866;12.750;2023-04-05T12:51:53;7.70;;;6.97;;
4375;SDS011;2202;50.866;12.750;2023-04-05T12:54:27;7.33;;;6.63;;
4375;SDS011;2202;50.866;12.750;2023-04-05T12:56:55;8.23;;;7.40;;
4375;SDS011;2202;50.866;12.750;2023-04-05T12:59:22;7.77;;;7.07;;
4375;SDS011;2202;50.866;12.750;2023-04-05T13:01:49;7.67;;;6.87;;
4375;SDS011;2202;50.866;12.750;2023-04-05T13:04:16;7.27;;;6.10;;
4375;SDS011;2202;50.866;12.750;2023-04-05T13:06:43;6.97;;;6.37;;
4375;SDS011;2202;50.866;12.750;2023-04-05T13:09:12;6.90;;;6.30;;
4375;SDS011;2202;50.866;12.750;2023-04-05T13:11:39;8.37;;;7.10;;
4375;SDS011;2202;50.866;12.750;2023-04-05T13:14:06;9.90;;;6.47;;
4375;SDS011;2202;50.866;12.750;2023-04-05T13:16:33;8.43;;;6.33;;
4375;SDS011;2202;50.866;12.750;2023-04-05T13:18:59;8.10;;;6.70;;
4375;SDS011;2202;50.866;12.750;2023-04-05T13:21:26;7.07;;;6.00;;
4375;SDS011;2202;50.866;12.750;2023-04-05T13:23:53;7.30;;;6.60;;
4375;SDS011;2202;50.866;12.750;2023-04-05T13:26:24;7.60;;;6.23;;
4375;SDS011;2202;50.866;12.750;2023-04-05T13:28:51;6.47;;;5.70;;
4375;SDS011;2202;50.866;12.750;2023-04-05T13:31:18;6.67;;;6.10;;
4375;SDS011;2202;50.866;12.750;2023-04-05T13:33:45;6.47;;;5.87;;
4375;SDS011;2202;50.866;12.750;2023-04-05T13:36:12;6.10;;;5.50;;
4375;SDS011;2202;50.866;12.750;2023-04-05T13:38:38;7.03;;;6.03;;
4375;SDS011;2202;50.866;12.750;2023-04-05T13:41:06;7.80;;;7.00;;
4375;SDS011;2202;50.866;12.750;2023-04-05T13:43:34;7.40;;;6.60;;
4375;SDS011;2202;50.866;12.750;2023-04-05T13:46:01;7.53;;;6.73;;
4375;SDS011;2202;50.866;12.750;2023-04-05T13:48:28;6.70;;;6.10;;
4375;SDS011;2202;50.866;12.750;2023-04-05T13:50:55;6.47;;;5.87;;
4375;SDS011;2202;50.866;12.750;2023-04-05T13:53:22;6.53;;;5.87;;
4375;SDS011;2202;50.866;12.750;2023-04-05T13:55:49;7.07;;;6.40;;
4375;SDS011;2202;50.866;12.750;2023-04-05T13:58:15;9.33;;;8.30;;
4375;SDS011;2202;50.866;12.750;2023-04-05T14:00:44;16.23;;;12.40;;
4375;SDS011;2202;50.866;12.750;2023-04-05T14:03:11;8.87;;;7.97;;
4375;SDS011;2202;50.866;12.750;2023-04-05T14:05:38;9.03;;;7.13;;
4375;SDS011;2202;50.866;12.750;2023-04-05T14:08:05;9.13;;;7.60;;
4375;SDS011;2202;50.866;12.750;2023-04-05T14:10:31;7.00;;;6.30;;
4375;SDS011;2202;50.866;12.750;2023-04-05T14:12:58;10.63;;;7.13;;
4375;SDS011;2202;50.866;12.750;2023-04-05T14:15:25;8.23;;;6.80;;
4375;SDS011;2202;50.866;12.750;2023-04-05T14:17:55;9.33;;;7.80;;
4375;SDS011;2202;50.866;12.750;2023-04-05T14:20:22;8.07;;;7.07;;
4375;SDS011;2202;50.866;12.750;2023-04-05T14:22:49;7.70;;;6.90;;
4375;SDS011;2202;50.866;12.750;2023-04-05T14:25:16;11.17;;;7.87;;
4375;SDS011;2202;50.866;12.750;2023-04-05T14:27:43;7.33;;;6.63;;
4375;SDS011;2202;50.866;12.750;2023-04-05T14:30:10;8.33;;;7.33;;
4375;SDS011;2202;50.866;12.750;2023-04-05T14:32:37;8.70;;;7.90;;
4375;SDS011;2202;50.866;12.750;2023-04-05T14:35:06;7.77;;;7.07;;
4375;SDS011;2202;50.866;12.750;2023-04-05T14:37:34;11.93;;;7.00;;
4375;SDS011;2202;50.866;12.750;2023-04-05T14:40:01;7.90;;;7.10;;
4375;SDS011;2202;50.866;12.750;2023-04-05T14:42:28;8.80;;;7.93;;
4375;SDS011;2202;50.866;12.750;2023-04-05T14:44:55;8.73;;;6.40;;
4375;SDS011;2202;50.866;12.750;2023-04-05T14:47:22;6.90;;;6.20;;
4375;SDS011;2202;50.866;12.750;2023-04-05T14:49:48;7.93;;;6.60;;
4375;SDS011;2202;50.866;12.750;2023-04-05T14:52:17;10.13;;;6.87;;
4375;SDS011;2202;50.866;12.750;2023-04-05T14:54:44;8.33;;;6.60;;
4375;SDS011;2202;50.866;12.750;2023-04-05T14:57:11;7.40;;;6.70;;
4375;SDS011;2202;50.866;12.750;2023-04-05T14:59:38;9.33;;;8.00;;
4375;SDS011;2202;50.866;12.750;2023-04-05T15:02:05;8.17;;;7.30;;
4375;SDS011;2202;50.866;12.750;2023-04-05T15:04:33;8.00;;;7.17;;
4375;SDS011;2202;50.866;12.750;2023-04-05T15:07:00;7.70;;;7.00;;
4375;SDS011;2202;50.866;12.750;2023-04-05T15:09:28;7.27;;;6.50;;
4375;SDS011;2202;50.866;12.750;2023-04-05T15:11:55;8.90;;;7.97;;
4375;SDS011;2202;50.866;12.750;2023-04-05T15:14:22;9.63;;;7.40;;